createdAt,value
2016-06-19T00:00:49.312Z,14.62
2016-06-19T00:01:49.940Z,14.6
2016-06-19T00:02:48.772Z,14.55
2016-06-19T00:03:49.431Z,14.63
2016-06-19T00:04:49.451Z,14.55
2016-06-19T00:05:50.095Z,14.59
2016-06-19T00:06:48.911Z,14.54
2016-06-19T00:07:49.570Z,14.51
2016-06-19T00:08:48.980Z,14.54
2016-06-19T00:09:50.250Z,14.6
2016-06-19T00:10:49.674Z,14.51
2016-06-19T00:11:49.694Z,14.53
2016-06-19T00:12:49.120Z,14.53
2016-06-19T00:13:49.779Z,14.58
2016-06-19T00:14:49.205Z,14.53
2016-06-19T00:15:49.880Z,14.51
2016-06-19T00:16:50.476Z,14.54
2016-06-19T00:17:49.918Z,14.54
2016-06-19T00:18:49.952Z,14.6
2016-06-19T00:19:50.597Z,14.55
2016-06-19T00:20:50.038Z,14.45
2016-06-19T00:21:50.666Z,14.47
2016-06-19T00:22:50.091Z,14.55
2016-06-19T00:23:49.532Z,14.53
2016-06-19T00:24:50.770Z,14.54
2016-06-19T00:25:49.602Z,14.47
2016-06-19T00:26:49.636Z,14.5
2016-06-19T00:27:50.890Z,14.44
2016-06-19T00:28:50.330Z,14.58
2016-06-19T00:29:49.740Z,14.47
2016-06-19T00:30:49.791Z,14.55
2016-06-19T00:31:50.419Z,14.53
2016-06-19T00:32:49.845Z,14.45
2016-06-19T00:33:51.098Z,14.59
2016-06-19T00:34:49.930Z,14.6
2016-06-19T00:35:50.574Z,14.59
2016-06-19T00:36:49.984Z,14.63
2016-06-19T00:37:50.034Z,14.62
2016-06-19T00:38:50.677Z,14.55
2016-06-19T00:39:50.713Z,14.58
2016-06-19T00:40:50.747Z,14.53
2016-06-19T00:41:50.782Z,14.59
2016-06-19T00:42:50.208Z,14.54
2016-06-19T00:43:51.492Z,14.54
2016-06-19T00:44:50.902Z,14.59
2016-06-19T00:45:51.530Z,14.54
2016-06-19T00:46:50.955Z,14.6
2016-06-19T00:47:50.990Z,14.59
2016-06-19T00:48:50.431Z,14.68
2016-06-19T00:49:51.669Z,14.6
2016-06-19T00:50:51.110Z,14.68
2016-06-19T00:51:50.536Z,14.59
2016-06-19T00:52:51.179Z,14.62
2016-06-19T00:53:51.807Z,14.69
2016-06-19T00:54:51.248Z,14.63
2016-06-19T00:55:50.674Z,14.78
2016-06-19T00:56:51.928Z,14.65
2016-06-19T00:57:51.978Z,14.66
2016-06-19T00:58:51.404Z,14.59
2016-06-19T00:59:50.813Z,14.62
2016-06-19T01:00:51.457Z,14.63
2016-06-19T01:01:51.492Z,14.65
2016-06-19T01:02:52.136Z,14.6
2016-06-19T01:03:51.577Z,14.62
2016-06-19T01:04:52.220Z,14.6
2016-06-19T01:05:51.646Z,14.59
2016-06-19T01:06:51.681Z,14.59
2016-06-19T01:07:51.105Z,14.59
2016-06-19T01:08:51.750Z,14.55
2016-06-19T01:09:51.784Z,14.63
2016-06-19T01:10:51.820Z,14.6
2016-06-19T01:11:52.480Z,14.54
2016-06-19T01:12:52.498Z,14.55
2016-06-19T01:13:52.534Z,14.53
2016-06-19T01:14:52.568Z,14.51
2016-06-19T01:15:52.009Z,14.47
2016-06-19T01:16:52.637Z,14.6
2016-06-19T01:17:52.079Z,14.59
2016-06-19T01:18:52.113Z,14.58
2016-06-19T01:19:52.147Z,14.48
2016-06-19T01:20:51.573Z,14.43
2016-06-19T01:21:51.608Z,14.45
2016-06-19T01:22:52.267Z,14.47
2016-06-19T01:23:52.286Z,14.41
2016-06-19T01:24:52.931Z,14.43
2016-06-19T01:25:52.965Z,14.43
2016-06-19T01:26:53.001Z,14.43
2016-06-19T01:27:52.425Z,14.43
2016-06-19T01:28:52.475Z,14.45
2016-06-19T01:29:53.104Z,14.43
2016-06-19T01:30:52.530Z,14.41
2016-06-19T01:31:53.189Z,14.29
2016-06-19T01:32:52.614Z,14.28
2016-06-19T01:33:52.040Z,14.3
2016-06-19T01:34:52.684Z,14.14
2016-06-19T01:35:52.719Z,14.25
2016-06-19T01:36:53.363Z,14.17
2016-06-19T01:37:52.788Z,14.14
2016-06-19T01:38:52.823Z,14.05
2016-06-19T01:39:52.874Z,14
2016-06-19T01:40:53.517Z,14.04
2016-06-19T01:41:52.317Z,13.96
2016-06-19T01:42:52.977Z,13.89
2016-06-19T01:43:53.012Z,13.89
2016-06-19T01:44:53.031Z,13.78
2016-06-19T01:45:53.081Z,13.78
2016-06-19T01:46:53.115Z,13.79
2016-06-19T01:47:52.526Z,13.74
2016-06-19T01:48:52.577Z,13.7
2016-06-19T01:49:53.830Z,13.7
2016-06-19T01:50:53.270Z,13.71
2016-06-19T01:51:53.274Z,13.68
2016-06-19T01:52:53.934Z,13.7
2016-06-19T01:53:53.359Z,13.68
2016-06-19T01:54:52.788Z,13.74
2016-06-19T01:55:54.046Z,13.72
2016-06-19T01:56:52.866Z,13.75
2016-06-19T01:57:54.123Z,13.68
2016-06-19T01:58:54.160Z,13.71
2016-06-19T01:59:53.587Z,13.65
2016-06-19T02:00:53.623Z,13.68
2016-06-19T02:01:53.658Z,13.7
2016-06-19T02:02:53.086Z,13.71
2016-06-19T02:03:53.746Z,13.75
2016-06-19T02:04:53.766Z,13.63
2016-06-19T02:05:53.192Z,13.62
2016-06-19T02:06:54.446Z,13.57
2016-06-19T02:07:53.278Z,13.65
2016-06-19T02:08:53.907Z,13.6
2016-06-19T02:09:53.347Z,13.57
2016-06-19T02:10:53.992Z,13.54
2016-06-19T02:11:53.401Z,13.5
2016-06-19T02:12:54.061Z,13.52
2016-06-19T02:13:54.705Z,13.52
2016-06-19T02:14:54.131Z,13.42
2016-06-19T02:15:54.149Z,13.49
2016-06-19T02:16:53.590Z,13.52
2016-06-19T02:17:54.250Z,13.52
2016-06-19T02:18:54.270Z,13.52
2016-06-19T02:19:54.913Z,13.49
2016-06-19T02:20:54.339Z,13.53
2016-06-19T02:21:53.764Z,13.52
2016-06-19T02:22:55.002Z,13.65
2016-06-19T02:23:53.833Z,13.74
2016-06-19T02:24:54.478Z,13.72
2016-06-19T02:25:54.513Z,13.63
2016-06-19T02:26:54.563Z,13.6
2016-06-19T02:27:54.581Z,13.65
2016-06-19T02:28:54.601Z,13.7
2016-06-19T02:29:54.651Z,13.71
2016-06-19T02:30:54.686Z,13.7
2016-06-19T02:31:54.752Z,13.63
2016-06-19T02:32:54.146Z,13.7
2016-06-19T02:33:54.790Z,13.72
2016-06-19T02:34:54.231Z,13.78
2016-06-19T02:35:55.469Z,13.75
2016-06-19T02:36:54.300Z,13.72
2016-06-19T02:37:55.569Z,13.7
2016-06-19T02:38:54.994Z,13.74
2016-06-19T02:39:54.997Z,13.68
2016-06-19T02:40:55.033Z,13.72
2016-06-19T02:41:55.068Z,13.65
2016-06-19T02:42:55.102Z,13.65
2016-06-19T02:43:54.528Z,13.71
2016-06-19T02:44:54.578Z,13.67
2016-06-19T02:45:55.206Z,13.7
2016-06-19T02:46:55.241Z,13.71
2016-06-19T02:47:55.886Z,13.71
2016-06-19T02:48:55.310Z,13.75
2016-06-19T02:49:55.954Z,13.71
2016-06-19T02:50:55.989Z,13.74
2016-06-19T02:51:54.822Z,13.67
2016-06-19T02:52:55.449Z,13.71
2016-06-19T02:53:54.890Z,13.71
2016-06-19T02:54:54.925Z,13.72
2016-06-19T02:55:55.553Z,13.68
2016-06-19T02:56:56.213Z,13.75
2016-06-19T02:57:55.638Z,13.7
2016-06-19T02:58:56.267Z,13.74
2016-06-19T02:59:56.317Z,13.79
2016-06-19T03:00:55.742Z,13.78
2016-06-19T03:01:55.168Z,13.85
2016-06-19T03:02:55.812Z,13.74
2016-06-19T03:03:55.847Z,13.71
2016-06-19T03:04:55.881Z,13.74
2016-06-19T03:05:56.526Z,13.74
2016-06-19T03:06:56.560Z,13.75
2016-06-19T03:07:55.377Z,13.75
2016-06-19T03:08:56.630Z,13.75
2016-06-19T03:09:55.461Z,13.86
2016-06-19T03:10:56.090Z,13.72
2016-06-19T03:11:55.546Z,13.75
2016-06-19T03:12:56.159Z,13.74
2016-06-19T03:13:56.210Z,13.72
2016-06-19T03:14:56.244Z,13.68
2016-06-19T03:15:56.263Z,13.71
2016-06-19T03:16:56.314Z,13.63
2016-06-19T03:17:56.958Z,13.65
2016-06-19T03:18:56.367Z,13.7
2016-06-19T03:19:56.418Z,13.71
2016-06-19T03:20:56.453Z,13.7
2016-06-19T03:21:56.503Z,13.72
2016-06-19T03:22:57.115Z,13.74
2016-06-19T03:23:56.557Z,13.74
2016-06-19T03:24:55.982Z,13.72
2016-06-19T03:25:56.626Z,13.65
2016-06-19T03:26:56.660Z,13.72
2016-06-19T03:27:56.086Z,13.68
2016-06-19T03:28:56.730Z,13.63
2016-06-19T03:29:56.781Z,13.62
2016-06-19T03:30:56.799Z,13.67
2016-06-19T03:31:56.849Z,13.62
2016-06-19T03:32:56.869Z,13.54
2016-06-19T03:33:57.529Z,13.67
2016-06-19T03:34:56.345Z,13.59
2016-06-19T03:35:57.598Z,13.59
2016-06-19T03:36:57.617Z,13.47
2016-06-19T03:37:57.058Z,13.57
2016-06-19T03:38:56.468Z,13.6
2016-06-19T03:39:57.127Z,13.57
2016-06-19T03:40:56.584Z,13.5
2016-06-19T03:41:57.790Z,13.5
2016-06-19T03:42:57.216Z,13.52
2016-06-19T03:43:57.876Z,13.49
2016-06-19T03:44:57.910Z,13.56
2016-06-19T03:45:57.929Z,13.56
2016-06-19T03:46:57.371Z,13.56
2016-06-19T03:47:56.795Z,13.57
2016-06-19T03:48:57.440Z,13.68
2016-06-19T03:49:57.475Z,13.7
2016-06-19T03:50:57.509Z,13.68
2016-06-19T03:51:58.153Z,13.71
2016-06-19T03:52:57.564Z,13.62
2016-06-19T03:53:58.223Z,13.7
2016-06-19T03:54:58.257Z,13.62
2016-06-19T03:55:57.683Z,13.63
2016-06-19T03:56:57.108Z,13.67
2016-06-19T03:57:57.159Z,13.77
2016-06-19T03:58:58.412Z,13.62
2016-06-19T03:59:57.822Z,13.72
2016-06-19T04:00:58.481Z,13.68
2016-06-19T04:01:58.500Z,13.63
2016-06-19T04:02:57.942Z,13.68
2016-06-19T04:03:57.960Z,13.67
2016-06-19T04:04:58.636Z,13.6
2016-06-19T04:05:58.639Z,13.6
2016-06-19T04:06:58.065Z,13.62
2016-06-19T04:07:57.505Z,13.59
2016-06-19T04:08:58.134Z,13.67
2016-06-19T04:09:58.778Z,13.63
2016-06-19T04:10:58.829Z,13.7
2016-06-19T04:11:58.256Z,13.68
2016-06-19T04:12:57.684Z,13.65
2016-06-19T04:13:58.922Z,13.78
2016-06-19T04:14:58.365Z,13.78
2016-06-19T04:15:58.995Z,13.81
2016-06-19T04:16:59.045Z,13.85
2016-06-19T04:17:59.082Z,13.87
2016-06-19T04:18:58.507Z,13.9
2016-06-19T04:19:57.933Z,13.85
2016-06-19T04:20:58.578Z,13.89
2016-06-19T04:21:58.003Z,13.89
2016-06-19T04:22:58.647Z,13.85
2016-06-19T04:23:58.697Z,13.89
2016-06-19T04:24:58.733Z,13.85
2016-06-19T04:25:58.751Z,13.89
2016-06-19T04:26:59.395Z,13.86
2016-06-19T04:27:58.821Z,13.78
2016-06-19T04:28:58.855Z,13.9
2016-06-19T04:29:58.281Z,13.89
2016-06-19T04:30:58.331Z,13.9
2016-06-19T04:31:58.349Z,13.85
2016-06-19T04:32:58.400Z,13.86
2016-06-19T04:33:58.436Z,13.92
2016-06-19T04:34:59.689Z,13.89
2016-06-19T04:35:59.098Z,13.77
2016-06-19T04:36:59.133Z,13.71
2016-06-19T04:37:59.809Z,13.72
2016-06-19T04:38:59.217Z,13.77
2016-06-19T04:39:58.643Z,13.74
2016-06-19T04:40:58.694Z,13.92
2016-06-19T04:41:59.322Z,13.9
2016-06-19T04:42:58.763Z,14.12
2016-06-19T04:43:59.392Z,14.37
2016-06-19T04:44:59.441Z,14.82
2016-06-19T04:45:59.461Z,15.07
2016-06-19T04:47:00.106Z,15.4
2016-06-19T04:47:59.546Z,15.8
2016-06-19T04:48:59.565Z,16.04
2016-06-19T04:49:59.006Z,16.42
2016-06-19T04:50:59.665Z,16.69
2016-06-19T04:51:59.685Z,16.94
2016-06-19T04:53:00.313Z,16.86
2016-06-19T04:53:59.754Z,16.75
2016-06-19T04:55:00.398Z,16.6
2016-06-19T04:56:00.433Z,16.54
2016-06-19T04:56:59.249Z,16.13
2016-06-19T04:57:59.299Z,15.77
2016-06-19T04:58:59.928Z,15.42
2016-06-19T04:59:59.993Z,15.09
2016-06-19T05:01:00.029Z,14.97
2016-06-19T05:01:59.439Z,14.92
2016-06-19T05:03:00.082Z,14.99
2016-06-19T05:04:00.148Z,15.35
2016-06-19T05:04:59.558Z,15.92
2016-06-19T05:06:00.796Z,16.51
2016-06-19T05:07:00.831Z,17.11
2016-06-19T05:08:00.271Z,17.78
2016-06-19T05:09:00.321Z,18.2
2016-06-19T05:09:59.731Z,18.2
2016-06-19T05:11:00.392Z,17.9
2016-06-19T05:12:01.035Z,17.89
2016-06-19T05:12:59.851Z,18.15
2016-06-19T05:13:59.886Z,18.23
2016-06-19T05:15:00.530Z,17.95
2016-06-19T05:16:00.581Z,17.9
2016-06-19T05:17:01.209Z,17.7
2016-06-19T05:18:00.650Z,17.7
2016-06-19T05:19:00.684Z,17.54
2016-06-19T05:20:00.719Z,17.36
2016-06-19T05:21:00.785Z,17.2
2016-06-19T05:22:01.445Z,16.78
2016-06-19T05:23:00.839Z,16.39
2016-06-19T05:24:00.280Z,15.97
2016-06-19T05:25:00.924Z,15.8
2016-06-19T05:26:00.958Z,15.77
2016-06-19T05:27:01.603Z,15.79
2016-06-19T05:28:01.028Z,15.82
2016-06-19T05:29:01.704Z,15.8
2016-06-19T05:30:01.707Z,15.77
2016-06-19T05:31:00.538Z,15.68
2016-06-19T05:32:01.793Z,15.67
2016-06-19T05:33:00.623Z,15.72
2016-06-19T05:34:01.268Z,15.54
2016-06-19T05:35:01.303Z,15.49
2016-06-19T05:36:01.368Z,15.31
2016-06-19T05:37:01.982Z,15.31
2016-06-19T05:38:01.406Z,15.29
2016-06-19T05:39:01.456Z,15.4
2016-06-19T05:40:01.476Z,15.4
2016-06-19T05:41:01.527Z,15.37
2016-06-19T05:42:02.170Z,15.4
2016-06-19T05:43:01.596Z,15.4
2016-06-19T05:44:01.036Z,15.46
2016-06-19T05:45:01.071Z,15.57
2016-06-19T05:46:01.715Z,15.55
2016-06-19T05:47:02.344Z,15.46
2016-06-19T05:48:01.785Z,15.18
2016-06-19T05:49:01.834Z,15.24
2016-06-19T05:50:01.854Z,15.19
2016-06-19T05:51:01.905Z,15.04
2016-06-19T05:52:01.940Z,15.1
2016-06-19T05:53:02.598Z,15.06
2016-06-19T05:54:01.400Z,15.09
2016-06-19T05:55:01.449Z,15.1
2016-06-19T05:56:02.703Z,15.03
2016-06-19T05:57:02.129Z,15.14
2016-06-19T05:58:02.163Z,15.14
2016-06-19T05:59:01.589Z,15.21
2016-06-19T06:00:02.232Z,15.19
2016-06-19T06:01:02.267Z,15.15
2016-06-19T06:02:02.318Z,15.1
2016-06-19T06:03:02.352Z,15.11
2016-06-19T06:04:01.777Z,15.25
2016-06-19T06:05:03.031Z,15.35
2016-06-19T06:06:02.456Z,15.27
2016-06-19T06:07:02.491Z,15.24
2016-06-19T06:08:02.542Z,15.17
2016-06-19T06:09:02.576Z,15.37
2016-06-19T06:10:02.610Z,15.47
2016-06-19T06:11:02.646Z,15.47
2016-06-19T06:12:02.071Z,15.52
2016-06-19T06:13:03.324Z,15.49
2016-06-19T06:14:02.766Z,15.59
2016-06-19T06:15:02.816Z,15.64
2016-06-19T06:16:02.819Z,15.76
2016-06-19T06:17:02.260Z,15.91
2016-06-19T06:18:03.513Z,16.08
2016-06-19T06:19:02.938Z,16.41
2016-06-19T06:20:03.583Z,16.42
2016-06-19T06:21:03.023Z,16.46
2016-06-19T06:22:03.668Z,16.43
2016-06-19T06:23:03.702Z,16.17
2016-06-19T06:24:03.737Z,16.05
2016-06-19T06:25:03.163Z,16
2016-06-19T06:26:03.212Z,15.94
2016-06-19T06:27:03.232Z,15.83
2016-06-19T06:28:03.289Z,15.83
2016-06-19T06:29:03.329Z,15.97
2016-06-19T06:30:03.980Z,16.09
2016-06-19T06:31:03.410Z,16.38
2016-06-19T06:32:02.856Z,16.42
2016-06-19T06:33:03.503Z,16.6
2016-06-19T06:34:04.149Z,16.64
2016-06-19T06:35:04.186Z,16.74
2016-06-19T06:36:04.224Z,16.66
2016-06-19T06:37:03.041Z,16.91
2016-06-19T06:38:03.701Z,16.74
2016-06-19T06:39:03.738Z,16.69
2016-06-19T06:40:04.382Z,16.79
2016-06-19T06:41:03.808Z,16.97
2016-06-19T06:42:03.860Z,17.11
2016-06-19T06:43:03.284Z,16.99
2016-06-19T06:44:03.319Z,17.16
2016-06-19T06:45:03.978Z,17.14
2016-06-19T06:46:04.015Z,16.99
2016-06-19T06:47:04.049Z,17.05
2016-06-19T06:48:04.083Z,17.11
2016-06-19T06:49:04.134Z,17.02
2016-06-19T06:50:04.153Z,16.9
2016-06-19T06:51:03.593Z,16.79
2016-06-19T06:52:03.628Z,16.76
2016-06-19T06:53:03.678Z,16.51
2016-06-19T06:54:03.714Z,16.47
2016-06-19T06:55:04.373Z,16.54
2016-06-19T06:56:04.408Z,16.57
2016-06-19T06:57:05.036Z,16.56
2016-06-19T06:58:04.478Z,16.68
2016-06-19T06:59:04.512Z,16.74
2016-06-19T07:00:04.547Z,16.97
2016-06-19T07:01:04.581Z,16.91
2016-06-19T07:02:04.631Z,17.12
2016-06-19T07:03:04.666Z,17.34
2016-06-19T07:04:04.701Z,17.38
2016-06-19T07:05:05.361Z,17.45
2016-06-19T07:06:04.770Z,17.48
2016-06-19T07:07:04.821Z,17.56
2016-06-19T07:08:04.856Z,17.63
2016-06-19T07:09:04.905Z,17.39
2016-06-19T07:10:04.940Z,17.33
2016-06-19T07:11:05.584Z,17.33
2016-06-19T07:12:05.619Z,17.72
2016-06-19T07:13:04.498Z,17.9
2016-06-19T07:14:04.486Z,17.94
2016-06-19T07:15:05.129Z,17.79
2016-06-19T07:16:05.179Z,17.7
2016-06-19T07:17:05.214Z,17.45
2016-06-19T07:18:05.250Z,17.38
2016-06-19T07:19:05.893Z,17.45
2016-06-19T07:20:05.335Z,17.3
2016-06-19T07:21:05.964Z,17.29
2016-06-19T07:22:04.794Z,17.24
2016-06-19T07:23:05.454Z,17.12
2016-06-19T07:24:05.488Z,16.94
2016-06-19T07:25:05.524Z,17.08
2016-06-19T07:26:06.167Z,17.26
2016-06-19T07:27:05.609Z,17.41
2016-06-19T07:28:05.035Z,17.39
2016-06-19T07:29:05.677Z,17.27
2016-06-19T07:30:05.119Z,17.39
2016-06-19T07:31:05.154Z,17.44
2016-06-19T07:32:05.798Z,17.38
2016-06-19T07:33:05.849Z,17.3
2016-06-19T07:34:05.258Z,17.36
2016-06-19T07:35:06.512Z,17.42
2016-06-19T07:36:05.343Z,17.63
2016-06-19T07:37:05.987Z,17.86
2016-06-19T07:38:05.412Z,17.98
2016-06-19T07:39:06.681Z,18.1
2016-06-19T07:40:06.107Z,18.19
2016-06-19T07:41:06.141Z,18.16
2016-06-19T07:42:06.192Z,18.22
2016-06-19T07:43:06.836Z,18.29
2016-06-19T07:44:06.886Z,18.37
2016-06-19T07:45:06.311Z,18.86
2016-06-19T07:46:05.737Z,19.27
2016-06-19T07:47:06.990Z,20.31
2016-06-19T07:48:05.822Z,20.92
2016-06-19T07:49:07.075Z,21.25
2016-06-19T07:50:06.516Z,21.39
2016-06-19T07:51:05.925Z,21.43
2016-06-19T07:52:06.007Z,20.96
2016-06-19T07:53:07.230Z,19.94
2016-06-19T07:54:06.061Z,19.21
2016-06-19T07:55:06.096Z,19.24
2016-06-19T07:56:06.756Z,19.33
2016-06-19T07:57:06.182Z,19.41
2016-06-19T07:58:07.435Z,19.41
2016-06-19T07:59:07.485Z,19
2016-06-19T08:00:07.535Z,18.68
2016-06-19T08:01:07.570Z,18.34
2016-06-19T08:02:06.995Z,18.08
2016-06-19T08:03:07.045Z,17.89
2016-06-19T08:04:07.096Z,17.39
2016-06-19T08:05:07.115Z,17.27
2016-06-19T08:06:07.150Z,17.27
2016-06-19T08:07:07.810Z,16.94
2016-06-19T08:08:07.219Z,16.78
2016-06-19T08:09:07.286Z,16.86
2016-06-19T08:10:07.929Z,16.61
2016-06-19T08:11:07.355Z,16.65
2016-06-19T08:12:07.998Z,16.57
2016-06-19T08:13:07.440Z,16.51
2016-06-19T08:14:07.475Z,16.43
2016-06-19T08:15:07.509Z,16.46
2016-06-19T08:16:07.544Z,16.32
2016-06-19T08:17:07.593Z,16.32
2016-06-19T08:18:07.629Z,16.29
2016-06-19T08:19:08.289Z,16.26
2016-06-19T08:20:08.307Z,16.31
2016-06-19T08:21:07.749Z,16.36
2016-06-19T08:22:07.174Z,16.47
2016-06-19T08:23:07.834Z,16.5
2016-06-19T08:24:07.868Z,16.58
2016-06-19T08:25:07.903Z,16.53
2016-06-19T08:26:07.938Z,16.35
2016-06-19T08:27:08.597Z,16.54
2016-06-19T08:28:08.632Z,16.61
2016-06-19T08:29:08.651Z,16.81
2016-06-19T08:30:08.092Z,16.76
2016-06-19T08:31:07.549Z,16.83
2016-06-19T08:32:08.162Z,16.94
2016-06-19T08:33:08.806Z,16.99
2016-06-19T08:34:07.638Z,17.06
2016-06-19T08:35:08.281Z,17.26
2016-06-19T08:36:07.706Z,17.39
2016-06-19T08:37:08.366Z,17.49
2016-06-19T08:38:08.416Z,17.71
2016-06-19T08:39:07.827Z,17.57
2016-06-19T08:40:09.081Z,17.63
2016-06-19T08:41:09.130Z,17.71
2016-06-19T08:42:08.555Z,17.71
2016-06-19T08:43:08.605Z,17.67
2016-06-19T08:44:08.642Z,17.54
2016-06-19T08:45:08.696Z,17.49
2016-06-19T08:46:08.718Z,17.38
2016-06-19T08:47:08.161Z,17.36
2016-06-19T08:48:08.808Z,17.38
2016-06-19T08:49:09.454Z,17.38
2016-06-19T08:50:09.489Z,17.51
2016-06-19T08:51:08.931Z,17.51
2016-06-19T08:52:09.576Z,17.54
2016-06-19T08:53:09.003Z,17.46
2016-06-19T08:54:09.054Z,17.38
2016-06-19T08:55:09.089Z,17.06
2016-06-19T08:56:08.531Z,17.2
2016-06-19T08:57:09.784Z,17.14
2016-06-19T08:58:09.210Z,17.22
2016-06-19T08:59:08.635Z,17.2
2016-06-19T09:00:09.280Z,17.27
2016-06-19T09:01:09.924Z,17.24
2016-06-19T09:02:09.974Z,17.14
2016-06-19T09:03:10.009Z,17.14
2016-06-19T09:04:08.840Z,17.16
2016-06-19T09:05:09.484Z,17.08
2016-06-19T09:06:08.909Z,17.08
2016-06-19T09:07:09.554Z,17.09
2016-06-19T09:08:09.604Z,16.94
2016-06-19T09:09:09.030Z,17.15
2016-06-19T09:10:09.673Z,17.08
2016-06-19T09:11:09.708Z,16.93
2016-06-19T09:12:09.758Z,16.99
2016-06-19T09:13:09.793Z,17.09
2016-06-19T09:14:09.828Z,17.05
2016-06-19T09:15:09.862Z,17.02
2016-06-19T09:16:09.304Z,17.06
2016-06-19T09:17:09.339Z,16.87
2016-06-19T09:18:10.592Z,16.71
2016-06-19T09:19:10.049Z,16.64
2016-06-19T09:20:09.458Z,16.61
2016-06-19T09:21:10.712Z,16.43
2016-06-19T09:22:10.136Z,16.49
2016-06-19T09:23:09.562Z,16.47
2016-06-19T09:24:10.237Z,16.41
2016-06-19T09:25:10.257Z,16.28
2016-06-19T09:26:10.292Z,16.2
2016-06-19T09:27:10.935Z,16.17
2016-06-19T09:28:09.783Z,16.09
2016-06-19T09:29:09.801Z,16.16
2016-06-19T09:30:10.445Z,16.08
2016-06-19T09:31:11.090Z,16.04
2016-06-19T09:32:11.125Z,16.01
2016-06-19T09:33:10.566Z,16.04
2016-06-19T09:34:11.210Z,16.09
2016-06-19T09:35:10.634Z,16.17
2016-06-19T09:36:10.670Z,16.29
2016-06-19T09:37:10.110Z,16.43
2016-06-19T09:38:10.145Z,16.56
2016-06-19T09:39:10.774Z,16.65
2016-06-19T09:40:11.433Z,16.75
2016-06-19T09:41:10.249Z,16.75
2016-06-19T09:42:10.300Z,16.94
2016-06-19T09:43:11.537Z,17.09
2016-06-19T09:44:10.979Z,17.12
2016-06-19T09:45:11.622Z,17.02
2016-06-19T09:46:11.658Z,17.15
2016-06-19T09:47:11.098Z,17.36
2016-06-19T09:48:10.523Z,17.15
2016-06-19T09:49:11.168Z,16.93
2016-06-19T09:50:11.811Z,16.75
2016-06-19T09:51:11.253Z,16.79
2016-06-19T09:52:11.897Z,16.49
2016-06-19T09:53:10.713Z,16.49
2016-06-19T09:54:10.763Z,16.42
2016-06-19T09:55:11.407Z,16.53
2016-06-19T09:56:10.832Z,16.42
2016-06-19T09:57:11.477Z,16.38
2016-06-19T09:58:12.121Z,16.47
2016-06-19T09:59:11.578Z,16.53
2016-06-19T10:00:12.206Z,16.35
2016-06-19T10:01:11.631Z,16.57
2016-06-19T10:02:12.291Z,16.9
2016-06-19T10:03:11.701Z,17.31
2016-06-19T10:04:12.360Z,18
2016-06-19T10:05:12.410Z,18.56
2016-06-19T10:06:12.430Z,18.62
2016-06-19T10:07:11.261Z,18.78
2016-06-19T10:08:12.515Z,18.74
2016-06-19T10:09:12.549Z,18.92
2016-06-19T10:10:12.584Z,19.08
2016-06-19T10:11:12.634Z,19.45
2016-06-19T10:12:11.465Z,19.54
2016-06-19T10:13:12.110Z,19.63
2016-06-19T10:14:12.144Z,19.62
2016-06-19T10:15:12.195Z,19.91
2016-06-19T10:16:12.839Z,19.94
2016-06-19T10:17:11.655Z,20.13
2016-06-19T10:18:12.315Z,20.32
2016-06-19T10:19:12.365Z,20.31
2016-06-19T10:20:12.993Z,20.14
2016-06-19T10:21:12.435Z,20.1
2016-06-19T10:22:12.469Z,20.04
2016-06-19T10:23:12.504Z,19.39
2016-06-19T10:24:11.945Z,19
2016-06-19T10:25:12.604Z,19.02
2016-06-19T10:26:13.249Z,19.39
2016-06-19T10:27:12.674Z,19.18
2016-06-19T10:28:12.115Z,18.99
2016-06-19T10:29:12.759Z,18.92
2016-06-19T10:30:12.841Z,18.77
2016-06-19T10:31:12.845Z,18.34
2016-06-19T10:32:12.895Z,18.34
2016-06-19T10:33:13.555Z,18.2
2016-06-19T10:34:12.980Z,18.07
2016-06-19T10:35:13.014Z,17.98
2016-06-19T10:36:13.049Z,17.95
2016-06-19T10:37:13.693Z,17.71
2016-06-19T10:38:12.540Z,17.64
2016-06-19T10:39:13.794Z,17.57
2016-06-19T10:40:13.203Z,17.38
2016-06-19T10:41:13.270Z,17.26
2016-06-19T10:42:13.305Z,16.91
2016-06-19T10:43:13.339Z,16.89
2016-06-19T10:44:12.796Z,16.83
2016-06-19T10:45:13.423Z,16.72
2016-06-19T10:46:13.458Z,16.64
2016-06-19T10:47:13.493Z,16.56
2016-06-19T10:48:14.153Z,16.49
2016-06-19T10:49:14.188Z,16.58
2016-06-19T10:50:14.238Z,16.51
2016-06-19T10:51:14.273Z,16.57
2016-06-19T10:52:13.697Z,16.43
2016-06-19T10:53:13.749Z,16.46
2016-06-19T10:54:13.174Z,16.38
2016-06-19T10:55:13.818Z,16.42
2016-06-19T10:56:13.836Z,16.42
2016-06-19T10:57:13.903Z,16.56
2016-06-19T10:58:13.938Z,16.56
2016-06-19T10:59:14.566Z,16.6
2016-06-19T11:00:14.007Z,16.72
2016-06-19T11:01:13.450Z,17.19
2016-06-19T11:02:14.080Z,17.34
2016-06-19T11:03:13.522Z,17.59
2016-06-19T11:04:14.793Z,18.04
2016-06-19T11:05:13.610Z,18.29
2016-06-19T11:06:14.239Z,18.23
2016-06-19T11:07:14.899Z,18.49
2016-06-19T11:08:14.965Z,19
2016-06-19T11:09:13.751Z,19.84
2016-06-19T11:10:13.801Z,20.09
2016-06-19T11:11:14.462Z,19.71
2016-06-19T11:12:15.106Z,19.54
2016-06-19T11:13:14.547Z,19.45
2016-06-19T11:14:13.974Z,19.39
2016-06-19T11:15:14.602Z,19.39
2016-06-19T11:16:15.277Z,19.39
2016-06-19T11:17:14.702Z,19.4
2016-06-19T11:18:14.127Z,20.28
2016-06-19T11:19:15.397Z,20.95
2016-06-19T11:20:15.431Z,21.79
2016-06-19T11:21:15.466Z,21.99
2016-06-19T11:22:14.298Z,21.51
2016-06-19T11:23:14.942Z,21.21
2016-06-19T11:24:14.992Z,21.05
2016-06-19T11:25:15.026Z,21.05
2016-06-19T11:26:14.452Z,21.22
2016-06-19T11:27:15.128Z,20.95
2016-06-19T11:28:15.772Z,21.79
2016-06-19T11:29:15.197Z,21.91
2016-06-19T11:30:15.857Z,21.64
2016-06-19T11:31:14.688Z,21.58
2016-06-19T11:32:15.333Z,22.41
2016-06-19T11:33:15.992Z,23.09
2016-06-19T11:34:14.823Z,23.05
2016-06-19T11:35:15.468Z,23.84
2016-06-19T11:36:15.517Z,23.76
2016-06-19T11:37:14.959Z,24.03
2016-06-19T11:38:15.603Z,23.78
2016-06-19T11:39:15.653Z,23.62
2016-06-19T11:40:15.703Z,23.66
2016-06-19T11:41:15.753Z,23.78
2016-06-19T11:42:15.805Z,24.39
2016-06-19T11:43:15.855Z,24.5
2016-06-19T11:44:15.889Z,24.69
2016-06-19T11:45:15.940Z,24.91
2016-06-19T11:46:16.599Z,24.77
2016-06-19T11:47:16.041Z,23.59
2016-06-19T11:48:16.700Z,22.73
2016-06-19T11:49:16.125Z,22.08
2016-06-19T11:50:16.801Z,22.22
2016-06-19T11:51:15.632Z,22.8
2016-06-19T11:52:16.885Z,23.15
2016-06-19T11:53:16.327Z,23.08
2016-06-19T11:54:16.377Z,22.83
2016-06-19T11:55:16.444Z,23.41
2016-06-19T11:56:15.884Z,23.36
2016-06-19T11:57:17.154Z,22.73
2016-06-19T11:58:16.578Z,23.03
2016-06-19T11:59:16.019Z,22.83
2016-06-19T12:00:16.680Z,22.7
2016-06-19T12:01:16.729Z,22.57
2016-06-19T12:02:16.779Z,21.95
2016-06-19T12:03:16.221Z,21.55
2016-06-19T12:04:16.881Z,20.88
2016-06-19T12:05:16.931Z,20.31
2016-06-19T12:06:16.965Z,20.21
2016-06-19T12:07:17.625Z,21.06
2016-06-19T12:08:17.692Z,22.02
2016-06-19T12:09:17.131Z,22.5
2016-06-19T12:10:16.542Z,22.36
2016-06-19T12:11:17.217Z,21.82
2016-06-19T12:12:17.878Z,21.96
2016-06-19T12:13:17.303Z,21.95
2016-06-19T12:14:16.743Z,21.43
2016-06-19T12:15:18.012Z,20.96
2016-06-19T12:16:16.860Z,20.36
2016-06-19T12:17:17.488Z,20.18
2016-06-19T12:18:17.554Z,20.21
2016-06-19T12:19:18.198Z,19.86
2016-06-19T12:20:17.030Z,19.86
2016-06-19T12:21:17.674Z,20.07
2016-06-19T12:22:18.239Z,20.4
2016-06-19T12:23:17.165Z,21.18
2016-06-19T12:24:18.450Z,22.38
2016-06-19T12:25:18.469Z,23.48
2016-06-19T12:26:18.520Z,23.71
2016-06-19T12:27:18.554Z,23.56
2016-06-19T12:28:18.010Z,22.96
2016-06-19T12:29:18.670Z,22.59
2016-06-19T12:30:18.096Z,23.91
2016-06-19T12:31:18.754Z,24.73
2016-06-19T12:32:18.805Z,24.53
2016-06-19T12:33:18.856Z,24.86
2016-06-19T12:34:18.890Z,25.35
2016-06-19T12:35:18.346Z,25.44
2016-06-19T12:36:18.991Z,24.6
2016-06-19T12:37:17.822Z,23.77
2016-06-19T12:38:18.499Z,23.32
2016-06-19T12:39:17.923Z,22.53
2016-06-19T12:40:18.583Z,22.06
2016-06-19T12:41:19.228Z,20.32
2016-06-19T12:42:18.684Z,20.03
2016-06-19T12:43:18.125Z,20.25
2016-06-19T12:44:18.769Z,20.52
2016-06-19T12:45:18.836Z,20.59
2016-06-19T12:46:18.869Z,20.72
2016-06-19T12:47:18.920Z,20.9
2016-06-19T12:48:19.580Z,20.8
2016-06-19T12:49:19.020Z,20.48
2016-06-19T12:50:19.664Z,20.37
2016-06-19T12:51:19.106Z,20.26
2016-06-19T12:52:19.140Z,20.32
2016-06-19T12:53:19.206Z,20.36
2016-06-19T12:54:19.226Z,20.5
2016-06-19T12:55:19.901Z,20.69
2016-06-19T12:56:19.342Z,20.87